^^

Nearby METAR Reports

 

EGHH - Bournemouth Airp, United Kingdom
Distance from station: S 10mi, 17km
Updated: 21/06/2018 23:20
NOT Current
Clear
Clear
 Wind from N
Wind: N 8 mph , 13 km/h
Temperature: 12°C
Dew Point: 5°C
Humidity: 63%
Barometer: 1030 hPa
Summary: Clear
Visibility: greater than 7 miles , 10 km
2018/06/21 22:20 EGHH 212220Z 36007KT CAVOK 12/05 Q1030
EGDM - Boscombe Down, United Kingdom
Distance from station: N 16mi, 26km
Updated: 22/06/2018 00:50
Clear
Clear
 Wind from N
Wind: N 7 mph , 11 km/h
Temperature: 8°C
Wind Chill: 6°C
Dew Point: 5°C
Humidity: 82%
Barometer: 1030 hPa
Summary: Clear
Visibility: greater than 7 miles , 10 km
2018/06/21 23:50 EGDM 212350Z 35006KT CAVOK 08/05 Q1030 BLU NOSIG
 
EGVP - Middle Wallop, United Kingdom
Distance from station: NE 17mi, 27km
Updated: 22/06/2018 00:50
Clear
Clear
 Wind from NNW
Wind: NNW 7 mph , 11 km/h
Temperature: 11°C
Dew Point: 4°C
Humidity: 62%
Barometer: 1030 hPa
Summary: Clear
Visibility: greater than 7 miles , 10 km
2018/06/21 23:50 EGVP 212350Z 34006KT CAVOK 11/04 Q1030 BLU NOSIG
EGHI - Southampton Wx C, United Kingdom
Distance from station: E 19mi, 31km
Updated: 21/06/2018 22:20
NOT Current
Clear
Clear
 Wind from varies
Wind: varies 3 mph , 6 km/h
Temperature: 13°C
Dew Point: 3°C
Humidity: 51%
Barometer: 1029 hPa
Summary: Clear
Visibility: greater than 7 miles , 10 km
2018/06/21 21:20 EGHI 212120Z VRB03KT CAVOK 13/03 Q1029
 
EGDY - Yeovilton (navy), United Kingdom
Distance from station: W 36mi, 58km
Updated: 22/06/2018 00:50
Clear
Clear
 Wind from NNW
Wind: NNW 1 mph , 2 km/h
Temperature: 10°C
Dew Point: 4°C
Humidity: 67%
Barometer: 1031 hPa
Summary: Clear
Visibility: greater than 7 miles , 10 km
2018/06/21 23:50 EGDY 212350Z 34001KT CAVOK 10/04 Q1031 BLU NOSIG
EGUO - Colerne Raf, United Kingdom
Distance from station: NNW 41mi, 66km
Updated: 21/03/2018 08:50
NOT Current
Clear
Clear
 Wind from W
Wind: W 6 mph , 9 km/h
Temperature: 5°C
Wind Chill: 3°C
Dew Point: 1°C
Humidity: 76%
Barometer: 1032 hPa
Clouds: Clear
Visibility: 6 miles , 10 km
2018/03/21 08:50 EGUO 210850Z 27005KT 9999 NCD 05/01 Q1032 BLU NOSIG
 
EGVO - Odiham Raf, United Kingdom
Distance from station: ENE 42mi, 68km
Updated: 22/06/2018 00:50
Clear
Clear
 Wind from NW
Wind: NW 7 mph , 11 km/h
Temperature: 10°C
Wind Chill: 8°C
Dew Point: 4°C
Humidity: 67%
Barometer: 1030 hPa
Summary: Clear
Visibility: greater than 7 miles , 10 km
2018/06/21 23:50 EGVO 212350Z 31006KT CAVOK 10/04 Q1030 BLU NOSIG
EGGD - Bristol/Lulsgate, United Kingdom
Distance from station: NW 50mi, 81km
Updated: 22/06/2018 00:50
Clear
Clear
 Wind from N
Wind: N 9 mph , 15 km/h
Temperature: 10°C
Wind Chill: 8°C
Dew Point: 4°C
Humidity: 67%
Barometer: 1031 hPa
Clouds: Clear
Visibility: 6 miles , 10 km
2018/06/21 23:50 EGGD 212350Z AUTO 35008KT 9999 NCD 10/04 Q1031